Aeroporto :
LOGIN :

Iscrizione | Disclaimer

   EN    FR    IT 

 










Sommario :    VFR   VFR Marginale   IFR   IFR Intensivo   IFR Molto Intensivo
Visibilità : 
Base nubi : 
>= 8 km
>= 3000ft
5 / 8 km
1000 / 3000 ft
1500m / 5 km
500 / 1000 ft
800 / 1500m
200 / 500 ft
< 800m
< 200 ft
Simboli :   Temporali  Nebbia  Neve Forte  Precipitazioni Forti  Vento > 20 kt
SIGMETs :   Varie  Temporali  Ghiacco  Turbolenza  Onda orograficha  Ceneri Vulcaniche






- Altitudine del aeroporto : 464 ft
- Codice IATA : EVX


LFOE - Evreux

ULTIMO METAR :
  • 230800Z AUTO 25004KT 180V310 9999 FEW016 SCT070 15/11 Q1016

METARs OBSOLETI :
  • 230730Z AUTO 28006KT 250V310 CAVOK 13/10 Q1016 NOSIG
  • 230700Z AUTO 27006KT 230V300 CAVOK 14/11 Q1016 NOSIG
  • 230630Z AUTO 25006KT 210V290 CAVOK 13/11 Q1016 NOSIG
  • 230600Z AUTO 26006KT 210V290 CAVOK 13/11 Q1016 TEMPO BKN004
  • 230530Z AUTO 22004KT 200V260 CAVOK 12/11 Q1016 TEMPO BKN004
  • 230500Z AUTO 21006KT CAVOK 11/10 Q1016 TEMPO BKN004
  • 230430Z AUTO 22004KT 200V260 CAVOK 10/10 Q1016 TEMPO BKN004
  • 230400Z AUTO 22004KT CAVOK 10/10 Q1016 TEMPO BKN004
  • 230330Z AUTO VRB02KT CAVOK 10/10 Q1015 TEMPO BKN004

TAF TAF LFOE
Valido dal 23 a 03 ore il 24 a 03 ore UTC


230200Z 2303/2403 26005KT CAVOK
TEMPO 2305/2307 BKN004
TEMPO 2310/2321 3000 SHRA BKN030CB
PROB40
TEMPO 2315/2318 VRB15G25KT 2000 TSRA



MetMap, La meteo Aeronautica in un colpo d'occhio ! - Copyright ORBIFLY Dicembre 2007 - Disclaimer

ORBIFLY MET'MAP TEAM :

Programmazione e sviluppo : Alexandra Zaïnal
Concezione : Baudouin d'Aumeries
Supporto tecnico e logistico : Manuel Goepfert
Aiuto : Marc-Olivier Méhu
Aiuto per la traduzione : Arnaldo La Scala




FONTI E CREDITI :

   NOAA